Time;durP1;ratioP1;P1;durP2;ratioP2;P2;SDS_P1;SDS_P2;PMS_P1;PMS_P2;Temp;Humidity;BMP_temperature;BMP_pressure;BME280_temperature;BME280_humidity;BME280_pressure;Samples;Min_cycle;Max_cycle;Signal;HPM_P1;HPM_P2
2023/02/03 10:05:30;;;;;;;2.20;0.70;;;10.90;99.90;;;;;;4956219;23;20303;-73
2023/02/03 10:08:06;;;;;;;4.97;0.50;;;11.00;99.90;;;;;;4955704;29;20212;-75
2023/02/03 10:10:39;;;;;;;5.57;1.20;;;11.00;99.90;;;;;;4946417;29;20205;-74
2023/02/03 10:13:21;;;;;;;1.57;0.40;;;10.80;99.90;;;;;;4916487;29;20305;-74
2023/02/03 10:16:01;;;;;;;5.30;1.27;;;10.90;99.90;;;;;;4916132;29;20568;-75
2023/02/03 10:18:33;;;;;;;3.70;0.70;;;10.90;99.90;;;;;;4915959;29;20210;-73
2023/02/03 10:21:04;;;;;;;1.13;0.40;;;11.00;99.90;;;;;;4915757;29;20242;-72
2023/02/03 10:23:35;;;;;;;3.33;0.60;;;11.20;99.90;;;;;;4915452;29;20213;-72
2023/02/03 10:26:05;;;;;;;2.27;0.50;;;11.20;99.90;;;;;;4915961;29;20214;-74
2023/02/03 10:28:38;;;;;;;4.63;0.73;;;11.40;99.90;;;;;;4921659;29;20204;-74
2023/02/03 10:31:16;;;;;;;4.33;0.70;;;11.50;99.90;;;;;;4934324;29;20228;-74
2023/02/03 10:33:43;;;;;;;1.60;0.73;;;11.60;99.90;;;;;;4942140;29;20578;-74
2023/02/03 10:36:19;;;;;;;1.90;0.70;;;11.60;99.90;;;;;;4953397;29;20212;-73
2023/02/03 10:38:54;;;;;;;1.37;0.50;;;11.60;99.90;;;;;;4942226;29;20201;-75
2023/02/03 10:41:23;;;;;;;1.70;0.67;;;11.60;99.90;;;;;;4916054;29;20324;-72
2023/02/03 10:43:51;;;;;;;1.90;0.80;;;11.60;99.90;;;;;;4934261;29;20231;-71
2023/02/03 10:46:19;;;;;;;1.63;0.67;;;11.60;99.90;;;;;;4930012;29;20222;-73
2023/02/03 10:48:46;;;;;;;1.27;0.83;;;11.40;99.90;;;;;;4913245;29;20665;-71
2023/02/03 10:51:20;;;;;;;3.07;0.80;;;11.40;99.90;;;;;;4928412;29;20260;-72
2023/02/03 10:53:51;;;;;;;3.97;0.70;;;11.40;99.90;;;;;;4934182;29;20576;-71
2023/02/03 10:56:20;;;;;;;2.07;0.80;;;11.40;99.90;;;;;;4934512;29;20211;-74
2023/02/03 10:58:49;;;;;;;1.47;0.70;;;11.40;99.90;;;;;;4934297;29;20205;-76
2023/02/03 11:01:19;;;;;;;0.67;0.50;;;11.40;99.90;;;;;;4934102;29;20323;-79
2023/02/03 11:03:55;;;;;;;5.30;1.03;;;11.30;99.90;;;;;;4934358;29;20209;-75
2023/02/03 11:06:23;;;;;;;2.27;0.80;;;11.40;99.90;;;;;;4934452;29;20579;-73
2023/02/03 11:08:51;;;;;;;4.47;1.20;;;11.40;99.90;;;;;;4934498;29;20287;-73
2023/02/03 11:11:23;;;;;;;2.57;0.67;;;11.40;99.90;;;;;;4934547;29;20225;-73
2023/02/03 11:13:53;;;;;;;2.70;0.70;;;11.50;99.90;;;;;;4934602;29;20209;-73
2023/02/03 11:16:20;;;;;;;1.07;0.73;;;11.40;99.90;;;;;;4934170;29;20219;-73
2023/02/03 11:18:53;;;;;;;5.30;1.10;;;11.50;99.90;;;;;;4934011;29;20201;-71
2023/02/03 11:21:25;;;;;;;3.67;1.00;;;11.50;99.90;;;;;;4933924;29;20244;-73
2023/02/03 11:23:57;;;;;;;1.43;0.70;;;11.40;99.90;;;;;;4934471;29;20580;-73
2023/02/03 11:26:29;;;;;;;3.17;1.00;;;11.40;99.90;;;;;;4933753;29;20641;-74
2023/02/03 11:28:59;;;;;;;2.33;0.90;;;11.40;99.90;;;;;;4933763;29;20201;-73
2023/02/03 11:31:27;;;;;;;2.30;0.93;;;11.50;99.90;;;;;;4933660;29;20237;-74
2023/02/03 11:34:00;;;;;;;1.40;0.80;;;11.40;99.90;;;;;;4933137;29;20597;-73
2023/02/03 11:36:30;;;;;;;3.03;0.90;;;11.40;99.90;;;;;;4933984;29;20695;-74
2023/02/03 11:39:28;;;;;;;2.53;0.83;;;11.30;99.90;;;;;;4934178;29;20211;-72
2023/02/03 11:41:56;;;;;;;3.23;0.90;;;11.30;99.90;;;;;;4933741;29;20240;-76
2023/02/03 11:44:28;;;;;;;1.07;0.87;;;11.30;99.90;;;;;;4930076;29;21506;-74
2023/02/03 11:46:58;;;;;;;1.77;1.07;;;11.30;99.90;;;;;;4932520;29;20213;-73
2023/02/03 11:49:53;;;;;;;1.70;1.10;;;11.30;99.90;;;;;;4933944;29;20292;-73
2023/02/03 11:52:55;;;;;;;7.73;1.00;;;11.40;99.90;;;;;;4928683;29;20220;-74
2023/02/03 11:55:39;;;;;;;1.70;0.90;;;11.30;99.90;;;;;;4932061;29;20204;-74
2023/02/03 11:58:29;;;;;;;2.00;0.80;;;11.30;99.90;;;;;;4935392;29;20578;-74
2023/02/03 12:01:06;;;;;;;4.47;0.93;;;11.30;99.90;;;;;;4935160;29;20237;-74
2023/02/03 12:04:04;;;;;;;1.43;0.80;;;11.30;99.90;;;;;;4935404;29;20201;-73
2023/02/03 12:07:03;;;;;;;4.00;0.93;;;11.40;99.90;;;;;;4915834;29;20213;-74
2023/02/03 12:09:40;;;;;;;3.93;1.10;;;11.40;99.90;;;;;;4900390;29;20210;-73
2023/02/03 12:12:26;;;;;;;3.13;0.80;;;11.40;99.90;;;;;;4916299;29;20241;-74
2023/02/03 12:15:03;;;;;;;1.73;0.90;;;11.40;99.90;;;;;;4922569;29;20209;-73
2023/02/03 12:17:50;;;;;;;3.13;0.93;;;11.50;99.90;;;;;;4935106;29;20267;-74
2023/02/03 12:20:39;;;;;;;2.93;1.00;;;11.50;99.90;;;;;;4934719;29;20565;-74
2023/02/03 12:23:18;;;;;;;6.50;2.37;;;11.60;99.90;;;;;;4934624;29;20699;-73
2023/02/03 12:25:58;;;;;;;3.50;1.10;;;11.70;99.90;;;;;;4936637;29;20205;-73
2023/02/03 12:28:41;;;;;;;3.93;1.23;;;11.60;99.90;;;;;;4938446;29;20219;-73
2023/02/03 12:31:14;;;;;;;6.97;1.07;;;11.60;99.90;;;;;;4938168;29;20236;-73
2023/02/03 12:33:44;;;;;;;1.63;0.90;;;11.60;99.90;;;;;;4938423;29;20219;-73
2023/02/03 12:36:16;;;;;;;3.80;0.80;;;11.70;99.90;;;;;;4937814;29;20208;-73
2023/02/03 12:38:47;;;;;;;7.13;0.80;;;11.70;99.90;;;;;;4938315;29;20208;-73
2023/02/03 12:41:18;;;;;;;1.57;0.90;;;11.70;99.90;;;;;;4938092;29;20232;-73
2023/02/03 12:43:49;;;;;;;3.53;0.80;;;11.80;99.90;;;;;;4938431;29;20215;-73
2023/02/03 12:46:19;;;;;;;1.70;0.77;;;11.80;99.90;;;;;;4937868;29;20299;-73
2023/02/03 12:48:51;;;;;;;4.70;1.27;;;11.80;99.90;;;;;;4938136;29;20208;-74
2023/02/03 12:51:28;;;;;;;4.30;1.03;;;11.80;99.90;;;;;;4938073;29;20232;-73
2023/02/03 12:54:01;;;;;;;2.27;0.80;;;11.90;99.90;;;;;;4938350;29;20212;-73
2023/02/03 12:56:35;;;;;;;2.90;1.50;;;12.00;99.90;;;;;;4938212;29;20216;-73
2023/02/03 12:59:10;;;;;;;1.17;0.80;;;12.00;99.90;;;;;;4938017;29;20215;-73
2023/02/03 13:01:43;;;;;;;3.80;1.00;;;12.10;99.90;;;;;;4938009;29;20244;-73
2023/02/03 13:04:15;;;;;;;3.17;1.10;;;12.20;99.90;;;;;;4938193;29;20212;-73
2023/02/03 13:06:52;;;;;;;2.63;1.10;;;12.10;99.90;;;;;;4937853;29;20213;-73
2023/02/03 13:09:28;;;;;;;3.93;1.10;;;12.20;99.90;;;;;;4937899;29;20308;-73
2023/02/03 13:12:01;;;;;;;2.27;0.93;;;12.10;99.90;;;;;;4937679;29;20235;-73
2023/02/03 13:14:34;;;;;;;4.00;0.97;;;12.10;99.90;;;;;;4937937;29;20209;-74
2023/02/03 13:17:08;;;;;;;2.13;0.97;;;12.10;99.90;;;;;;4936814;29;20667;-73
2023/02/03 13:19:41;;;;;;;3.57;1.00;;;12.10;99.90;;;;;;4937331;29;20213;-73
2023/02/03 13:22:12;;;;;;;4.10;0.90;;;12.10;99.90;;;;;;4936837;29;20789;-73
2023/02/03 13:24:41;;;;;;;2.37;1.00;;;12.10;99.90;;;;;;4937145;29;20216;-73
2023/02/03 13:27:26;;;;;;;3.67;1.27;;;12.20;99.90;;;;;;4937003;29;20212;-73
2023/02/03 13:30:18;;;;;;;1.03;0.80;;;12.30;99.90;;;;;;4936935;29;20213;-73
2023/02/03 13:33:07;;;;;;;4.03;1.10;;;12.20;99.90;;;;;;4936735;29;20319;-73
2023/02/03 13:35:50;;;;;;;2.07;0.90;;;12.10;99.90;;;;;;4937181;29;20205;-73
2023/02/03 13:38:51;;;;;;;6.87;0.97;;;12.30;99.90;;;;;;4936161;29;20259;-73
2023/02/03 13:41:27;;;;;;;3.50;0.90;;;12.20;99.90;;;;;;4936619;29;20599;-73
2023/02/03 13:43:57;;;;;;;2.93;1.00;;;12.20;99.90;;;;;;4936944;29;20259;-73
2023/02/03 13:46:29;;;;;;;2.17;1.17;;;12.30;99.90;;;;;;4936955;29;20215;-73
2023/02/03 13:48:59;;;;;;;1.93;1.00;;;12.30;99.90;;;;;;4937053;29;20209;-73
2023/02/03 13:51:33;;;;;;;2.67;1.20;;;12.20;99.90;;;;;;4936545;29;20239;-73
2023/02/03 13:54:03;;;;;;;1.63;0.90;;;12.20;99.90;;;;;;4936705;29;20205;-73
2023/02/03 13:56:30;;;;;;;4.03;1.20;;;12.30;99.90;;;;;;4936730;29;20224;-73
2023/02/03 13:59:03;;;;;;;1.53;0.90;;;12.40;99.90;;;;;;4936572;29;20668;-73
2023/02/03 14:01:35;;;;;;;2.67;1.03;;;12.40;99.90;;;;;;4936260;29;20279;-73
2023/02/03 14:04:03;;;;;;;3.40;0.93;;;12.30;99.90;;;;;;4936433;29;20205;-74
2023/02/03 14:07:01;;;;;;;4.67;1.53;;;12.40;99.90;;;;;;4935944;29;20580;-73
2023/02/03 14:09:39;;;;;;;3.10;1.13;;;12.20;99.90;;;;;;4934633;29;20212;-73
2023/02/03 14:12:41;;;;;;;6.00;1.37;;;12.20;99.90;;;;;;4936462;29;20569;-73
2023/02/03 14:15:21;;;;;;;3.37;1.03;;;12.10;99.90;;;;;;4936594;29;20297;-73
2023/02/03 14:18:21;;;;;;;3.27;1.23;;;12.10;99.90;;;;;;4936705;29;20213;-73
2023/02/03 14:21:15;;;;;;;3.80;1.00;;;12.00;99.90;;;;;;4936049;29;20235;-74
2023/02/03 14:23:48;;;;;;;4.50;1.57;;;12.20;99.90;;;;;;4923222;29;20690;-73
2023/02/03 14:26:23;;;;;;;2.63;1.13;;;12.20;99.90;;;;;;4936267;29;20421;-73
2023/02/03 14:28:50;;;;;;;2.63;1.07;;;12.20;99.90;;;;;;4935724;29;20208;-73
2023/02/03 14:31:20;;;;;;;2.50;1.30;;;12.20;99.90;;;;;;4935500;29;20236;-73
2023/02/03 14:33:56;;;;;;;3.40;1.20;;;12.10;99.90;;;;;;4935842;29;20301;-73
2023/02/03 14:36:36;;;;;;;3.63;1.30;;;12.30;99.90;;;;;;4935980;29;20216;-73
2023/02/03 14:39:24;;;;;;;2.60;1.07;;;12.20;99.90;;;;;;4936358;29;20227;-73
2023/02/03 14:42:01;;;;;;;2.10;1.03;;;12.20;99.90;;;;;;4935908;29;20241;-73
2023/02/03 14:44:36;;;;;;;3.33;0.80;;;12.20;99.90;;;;;;4936078;29;20215;-73
2023/02/03 14:47:16;;;;;;;6.27;1.03;;;12.20;99.90;;;;;;4936091;29;20212;-73
2023/02/03 14:50:04;;;;;;;2.23;0.80;;;12.10;99.90;;;;;;4935833;29;20564;-73
2023/02/03 14:52:50;;;;;;;1.53;0.80;;;12.10;99.90;;;;;;4935640;29;20707;-73
2023/02/03 14:55:39;;;;;;;3.67;1.73;;;12.00;99.90;;;;;;4935732;29;20219;-74
2023/02/03 14:58:15;;;;;;;4.63;0.83;;;12.00;99.90;;;;;;4935864;29;20209;-74
2023/02/03 15:00:42;;;;;;;1.83;0.70;;;12.00;99.90;;;;;;4935864;29;20212;-73
2023/02/03 15:03:28;;;;;;;3.13;0.87;;;12.10;99.90;;;;;;4935907;29;20205;-73
2023/02/03 15:05:58;;;;;;;1.40;0.77;;;12.10;99.90;;;;;;4935411;29;20220;-73
2023/02/03 15:08:38;;;;;;;2.10;0.80;;;12.10;99.90;;;;;;4935649;29;20676;-73
2023/02/03 15:11:27;;;;;;;1.03;0.70;;;12.10;99.90;;;;;;4935670;29;20238;-73
2023/02/03 15:13:55;;;;;;;1.60;0.67;;;12.10;99.90;;;;;;4935983;29;20301;-73
2023/02/03 15:16:24;;;;;;;1.50;0.60;;;12.10;99.90;;;;;;4935772;29;20299;-74
2023/02/03 15:18:56;;;;;;;1.03;0.60;;;12.00;99.90;;;;;;4935701;29;20672;-73
2023/02/03 15:21:23;;;;;;;1.30;0.70;;;12.00;99.90;;;;;;4935245;29;20296;-74
2023/02/03 15:23:52;;;;;;;4.07;0.80;;;12.00;99.90;;;;;;4935381;29;20208;-74
2023/02/03 15:26:22;;;;;;;1.87;1.00;;;12.20;99.90;;;;;;4935566;29;20208;-73
2023/02/03 15:28:57;;;;;;;1.60;0.90;;;12.10;99.90;;;;;;4935437;29;20240;-74
2023/02/03 15:31:32;;;;;;;2.73;0.80;;;12.10;99.90;;;;;;4935344;29;20251;-74
2023/02/03 15:34:03;;;;;;;1.67;0.70;;;12.10;99.90;;;;;;4935623;29;20263;-74
2023/02/03 15:36:37;;;;;;;1.30;0.70;;;11.90;99.90;;;;;;4934614;29;20208;-74
2023/02/03 15:39:17;;;;;;;3.20;0.93;;;12.00;99.90;;;;;;4934799;29;20664;-73
2023/02/03 15:41:45;;;;;;;1.80;0.77;;;12.00;99.90;;;;;;4928306;29;20258;-73
2023/02/03 15:44:21;;;;;;;3.83;0.87;;;12.00;99.90;;;;;;4933727;29;20216;-72
2023/02/03 15:46:51;;;;;;;2.30;0.80;;;12.00;99.90;;;;;;4933794;29;20236;-74
2023/02/03 15:49:22;;;;;;;6.00;0.80;;;12.10;99.90;;;;;;4933513;29;20719;-75
2023/02/03 15:51:52;;;;;;;3.63;0.90;;;12.00;99.90;;;;;;4933316;29;20800;-72
2023/02/03 15:54:23;;;;;;;1.70;0.90;;;11.90;99.90;;;;;;4933698;29;20212;-74
2023/02/03 15:56:56;;;;;;;1.23;1.00;;;11.80;99.90;;;;;;4933479;29;20265;-72
2023/02/03 15:59:26;;;;;;;1.10;0.80;;;11.80;99.90;;;;;;4933618;29;20291;-74
2023/02/03 16:01:53;;;;;;;2.47;0.90;;;11.70;99.90;;;;;;4937963;29;20264;-73
2023/02/03 16:04:21;;;;;;;4.77;1.00;;;11.80;99.90;;;;;;4937001;29;20217;-74
2023/02/03 16:06:50;;;;;;;1.53;0.90;;;11.80;99.90;;;;;;4937066;29;20209;-74
2023/02/03 16:09:30;;;;;;;3.70;1.27;;;11.80;99.90;;;;;;4937336;29;20213;-71
2023/02/03 16:12:18;;;;;;;3.10;1.00;;;11.70;99.90;;;;;;4922878;29;20228;-72
2023/02/03 16:14:45;;;;;;;3.20;1.03;;;11.70;99.90;;;;;;4937350;29;20205;-72
2023/02/03 16:17:30;;;;;;;6.70;1.03;;;11.70;99.90;;;;;;4937017;29;20739;-74
2023/02/03 16:20:21;;;;;;;3.57;1.23;;;11.70;99.90;;;;;;4937028;29;20215;-71
2023/02/03 16:23:01;;;;;;;1.67;0.80;;;11.80;99.90;;;;;;4937022;29;20245;-71
2023/02/03 16:25:32;;;;;;;2.03;0.87;;;11.80;99.90;;;;;;4936929;29;20234;-71
2023/02/03 16:53:03;;;;;;;2.73;1.00;;;11.60;99.90;;;;;;4937466;29;20256;-73
2023/02/03 16:55:30;;;;;;;1.97;1.17;;;11.60;99.90;;;;;;4944153;29;20208;-80
2023/02/03 16:57:58;;;;;;;2.17;1.00;;;11.60;99.90;;;;;;4946646;29;20213;-75
2023/02/03 17:00:25;;;;;;;1.73;1.00;;;11.60;99.90;;;;;;4947810;29;20209;-78
2023/02/03 17:02:52;;;;;;;2.37;0.83;;;11.50;99.90;;;;;;4949310;28;20240;-75
2023/02/03 17:05:19;;;;;;;2.07;0.77;;;11.60;99.90;;;;;;4939930;29;20307;-73
2023/02/03 17:07:46;;;;;;;4.07;1.00;;;11.50;99.90;;;;;;4935925;29;20571;-75
2023/02/03 17:10:13;;;;;;;1.77;1.00;;;11.50;99.90;;;;;;4936829;29;20212;-79
2023/02/03 17:12:41;;;;;;;2.57;1.30;;;11.50;99.90;;;;;;4937053;29;20235;-77
2023/02/03 17:15:10;;;;;;;2.87;1.10;;;11.50;99.90;;;;;;4936774;29;20669;-77
2023/02/03 17:17:36;;;;;;;1.90;0.90;;;11.50;99.90;;;;;;4936356;29;20273;-77
2023/02/03 17:20:04;;;;;;;1.43;0.83;;;11.50;99.90;;;;;;4936235;29;20299;-77
2023/02/03 17:22:32;;;;;;;1.87;1.20;;;11.60;99.90;;;;;;4936134;29;20244;-74
2023/02/03 17:24:59;;;;;;;1.50;0.90;;;11.50;99.90;;;;;;4937027;29;20236;-74
2023/02/03 17:27:25;;;;;;;2.57;1.30;;;11.50;99.90;;;;;;4936176;29;20341;-75
2023/02/03 17:29:52;;;;;;;1.90;0.93;;;11.50;99.90;;;;;;4936001;29;20205;-75
2023/02/03 17:32:20;;;;;;;3.27;0.90;;;11.40;99.90;;;;;;4935818;29;20734;-74
2023/02/03 17:34:47;;;;;;;2.97;1.20;;;11.40;99.90;;;;;;4935714;29;20663;-73
2023/02/03 17:37:14;;;;;;;2.30;1.03;;;11.20;99.90;;;;;;4936283;29;20217;-76
2023/02/03 17:39:41;;;;;;;2.07;1.20;;;11.20;99.90;;;;;;4936182;29;20214;-74
2023/02/03 17:42:07;;;;;;;5.00;1.00;;;11.20;99.90;;;;;;4935653;29;20233;-75
2023/02/03 17:44:35;;;;;;;3.43;1.10;;;11.30;99.90;;;;;;4935932;29;20213;-75
2023/02/03 17:47:03;;;;;;;2.40;1.10;;;11.30;99.90;;;;;;4936121;29;20212;-74
2023/02/03 17:49:31;;;;;;;1.50;1.07;;;11.30;99.90;;;;;;4935645;29;20687;-74
2023/02/03 17:51:58;;;;;;;3.40;1.30;;;11.20;99.90;;;;;;4935636;29;20228;-75
2023/02/03 17:54:25;;;;;;;1.80;1.10;;;11.10;99.90;;;;;;4935512;29;20211;-74
2023/02/03 17:56:52;;;;;;;4.67;2.13;;;11.10;99.90;;;;;;4935436;29;20735;-74
2023/02/03 17:59:19;;;;;;;3.23;1.87;;;11.20;99.90;;;;;;4935642;29;20213;-75
2023/02/03 18:01:46;;;;;;;2.37;1.20;;;11.10;99.90;;;;;;4935133;29;20340;-74
2023/02/03 18:04:14;;;;;;;5.17;2.47;;;11.10;99.90;;;;;;4935819;29;20221;-77
2023/02/03 18:06:42;;;;;;;5.87;1.43;;;11.20;99.90;;;;;;4935406;29;20213;-81
2023/02/03 18:09:12;;;;;;;4.20;1.53;;;11.10;99.90;;;;;;4936030;29;20244;-74
2023/02/03 18:11:40;;;;;;;2.47;1.20;;;11.10;99.90;;;;;;4935361;29;20233;-76
2023/02/03 18:14:06;;;;;;;2.60;1.50;;;11.10;99.90;;;;;;4935667;29;20204;-77
2023/02/03 18:16:34;;;;;;;2.57;1.30;;;11.20;99.90;;;;;;4935321;29;20671;-74
2023/02/03 18:19:03;;;;;;;2.67;1.43;;;11.20;99.90;;;;;;4935272;29;20656;-74
2023/02/03 18:21:31;;;;;;;2.07;1.23;;;11.20;99.90;;;;;;4934775;29;20229;-77
2023/02/03 18:24:01;;;;;;;3.77;1.30;;;11.30;99.90;;;;;;4934204;29;20824;-76
2023/02/03 18:26:31;;;;;;;3.90;1.67;;;11.40;99.90;;;;;;4934826;29;20217;-79
2023/02/03 18:28:58;;;;;;;4.00;1.37;;;11.40;99.90;;;;;;4934920;29;20216;-76
2023/02/03 18:31:25;;;;;;;3.40;1.00;;;11.30;99.90;;;;;;4936385;29;20229;-76
2023/02/03 18:33:52;;;;;;;4.27;1.43;;;11.40;99.90;;;;;;4936352;29;20216;-74
2023/02/03 18:36:19;;;;;;;5.30;1.20;;;11.40;99.90;;;;;;4936078;29;20217;-75
2023/02/03 18:38:47;;;;;;;2.37;1.30;;;11.40;99.90;;;;;;4936323;29;20228;-74
2023/02/03 18:41:17;;;;;;;1.93;1.10;;;11.40;99.90;;;;;;4936204;29;20232;-75
2023/02/03 18:43:45;;;;;;;2.50;1.20;;;11.30;99.90;;;;;;4936049;29;20241;-75
2023/02/03 18:46:15;;;;;;;2.90;1.60;;;11.30;99.90;;;;;;4936035;29;20236;-74
2023/02/03 18:48:42;;;;;;;4.37;1.60;;;11.40;99.90;;;;;;4935958;29;20656;-74
2023/02/03 18:51:10;;;;;;;3.60;1.80;;;11.40;99.90;;;;;;4935585;29;20703;-75
2023/02/03 18:53:37;;;;;;;1.90;1.30;;;11.40;99.90;;;;;;4936026;29;20213;-75
2023/02/03 18:56:06;;;;;;;4.10;1.60;;;11.40;99.90;;;;;;4935922;29;20712;-75
2023/02/03 18:58:36;;;;;;;4.80;1.70;;;11.40;99.90;;;;;;4935976;29;20209;-75
2023/02/03 19:01:03;;;;;;;3.67;1.80;;;11.50;99.90;;;;;;4935875;29;20220;-75
2023/02/03 19:03:29;;;;;;;4.13;1.70;;;11.60;99.90;;;;;;4935837;29;20244;-75
2023/02/03 19:05:56;;;;;;;4.27;2.20;;;11.50;99.90;;;;;;4935402;29;20220;-75
2023/02/03 19:08:23;;;;;;;5.40;2.00;;;11.50;99.90;;;;;;4936029;29;20563;-75
2023/02/03 19:10:51;;;;;;;3.33;1.93;;;11.50;99.90;;;;;;4935444;29;20678;-75
2023/02/03 19:13:18;;;;;;;3.77;2.17;;;11.40;99.90;;;;;;4935571;29;20209;-75
2023/02/03 19:15:48;;;;;;;5.63;1.97;;;11.30;99.90;;;;;;4935024;29;20268;-74
2023/02/03 19:18:16;;;;;;;4.53;1.87;;;11.30;99.90;;;;;;4934806;29;20220;-74
2023/02/03 19:20:43;;;;;;;2.93;1.77;;;11.30;99.90;;;;;;4935468;29;20217;-74
2023/02/03 19:23:11;;;;;;;5.03;2.40;;;11.30;99.90;;;;;;4935275;29;20268;-75
2023/02/03 19:25:38;;;;;;;5.50;2.80;;;11.40;99.90;;;;;;4935263;29;20209;-75
2023/02/03 19:28:07;;;;;;;4.57;2.33;;;11.40;99.90;;;;;;4929029;29;20224;-75
2023/02/03 19:30:35;;;;;;;8.90;2.53;;;11.40;99.90;;;;;;4926564;29;20209;-75
2023/02/03 19:33:03;;;;;;;3.90;2.20;;;11.40;99.90;;;;;;4921899;29;20230;-76
2023/02/03 19:35:31;;;;;;;6.50;2.47;;;11.40;99.90;;;;;;4926217;29;20208;-75
2023/02/03 19:37:59;;;;;;;5.93;3.27;;;11.30;99.90;;;;;;4938596;29;20208;-74
2023/02/03 19:40:25;;;;;;;7.57;2.73;;;11.30;99.90;;;;;;4929560;29;20207;-75
2023/02/03 19:42:52;;;;;;;6.13;2.70;;;11.20;99.90;;;;;;4936548;29;20240;-75
2023/02/03 19:45:19;;;;;;;7.90;2.57;;;11.10;99.90;;;;;;4932380;29;20204;-75
2023/02/03 19:47:46;;;;;;;6.40;2.90;;;11.10;99.90;;;;;;4937338;29;20208;-74
2023/02/03 19:50:14;;;;;;;6.10;3.00;;;11.00;99.90;;;;;;4926430;29;20215;-75
2023/02/03 19:52:41;;;;;;;4.30;2.30;;;11.10;99.90;;;;;;4936728;29;20247;-74
2023/02/03 19:55:08;;;;;;;5.70;2.50;;;11.10;99.90;;;;;;4924450;29;20209;-75
2023/02/03 19:57:35;;;;;;;4.43;2.70;;;11.20;99.90;;;;;;4936427;29;20273;-75
2023/02/03 20:00:02;;;;;;;6.83;2.70;;;11.20;99.90;;;;;;4930442;29;20216;-75
2023/02/03 20:02:30;;;;;;;6.80;2.83;;;11.20;99.90;;;;;;4934572;29;20228;-74
2023/02/03 20:04:57;;;;;;;5.20;2.53;;;11.20;99.90;;;;;;4928063;29;20209;-74
2023/02/03 20:07:27;;;;;;;3.93;2.23;;;11.20;99.90;;;;;;4931216;29;20213;-74
2023/02/03 20:09:54;;;;;;;6.27;2.97;;;11.20;99.90;;;;;;4929131;29;20272;-75
2023/02/03 20:12:20;;;;;;;6.20;2.30;;;11.10;99.90;;;;;;4931261;29;20227;-75
2023/02/03 20:14:47;;;;;;;4.17;2.47;;;11.10;99.90;;;;;;4928962;29;20220;-75
2023/02/03 20:17:14;;;;;;;5.70;2.53;;;11.10;99.90;;;;;;4931775;29;20679;-75
2023/02/03 20:19:41;;;;;;;6.43;2.93;;;11.10;99.90;;;;;;4934028;29;20215;-75
2023/02/03 20:22:07;;;;;;;4.67;2.80;;;11.10;99.90;;;;;;4931836;29;20233;-74
2023/02/03 20:24:36;;;;;;;5.27;2.67;;;11.10;99.90;;;;;;4932364;29;20237;-74
2023/02/03 20:27:02;;;;;;;7.23;2.83;;;11.10;99.90;;;;;;4927840;29;20209;-74
2023/02/03 20:29:29;;;;;;;5.43;3.10;;;11.10;99.90;;;;;;4937520;29;20208;-74
2023/02/03 20:31:57;;;;;;;4.40;2.50;;;11.10;99.90;;;;;;4930323;29;20703;-74
2023/02/03 20:34:26;;;;;;;6.97;2.70;;;11.00;99.90;;;;;;4930211;29;20215;-74
2023/02/03 20:36:54;;;;;;;7.13;3.37;;;11.10;99.90;;;;;;4923308;29;20206;-74
2023/02/03 20:39:22;;;;;;;8.00;3.00;;;11.10;99.90;;;;;;4929239;29;20213;-75
2023/02/03 20:41:50;;;;;;;7.70;3.00;;;11.00;99.90;;;;;;4928536;29;20712;-75
2023/02/03 20:44:17;;;;;;;13.17;3.57;;;11.00;99.90;;;;;;4935957;29;20237;-75
2023/02/03 20:46:44;;;;;;;6.43;3.00;;;10.90;99.90;;;;;;4935089;29;20207;-75
2023/02/03 20:49:12;;;;;;;10.23;3.60;;;10.90;99.90;;;;;;4934121;29;20208;-76
2023/02/03 20:51:39;;;;;;;5.40;3.70;;;10.90;99.90;;;;;;4925610;29;20729;-75
2023/02/03 20:54:15;;;;;;;7.43;3.70;;;10.90;99.90;;;;;;4931648;29;20261;-74
2023/02/03 20:56:43;;;;;;;9.43;4.10;;;10.90;99.90;;;;;;4933303;29;20218;-75
2023/02/03 20:59:13;;;;;;;9.60;3.53;;;10.80;99.90;;;;;;4931543;29;20529;-75
2023/02/03 21:01:40;;;;;;;6.67;3.67;;;10.80;99.90;;;;;;4930902;29;20308;-75
2023/02/03 21:07:12;;;;;;;9.87;3.63;;;10.70;99.90;;;;;;4930752;29;20220;-74
2023/02/03 21:09:39;;;;;;;8.80;4.20;;;10.60;99.90;;;;;;4933030;29;20204;-75
2023/02/03 21:12:10;;;;;;;8.00;3.73;;;10.60;99.90;;;;;;4935509;29;20232;-75
2023/02/03 21:14:42;;;;;;;9.17;4.37;;;10.60;99.90;;;;;;4924573;29;20218;-75
2023/02/03 21:17:16;;;;;;;12.83;4.13;;;10.50;99.90;;;;;;4931767;29;20216;-75
2023/02/03 21:19:43;;;;;;;7.27;4.30;;;10.50;99.90;;;;;;4929265;29;20219;-74
2023/02/03 21:22:17;;;;;;;8.70;4.30;;;10.50;99.90;;;;;;4933708;29;20220;-75
2023/02/03 21:24:47;;;;;;;11.23;4.77;;;10.50;99.90;;;;;;4929631;29;20232;-75
2023/02/03 21:27:26;;;;;;;9.70;4.30;;;10.30;99.90;;;;;;4933621;29;20649;-75
2023/02/03 21:29:55;;;;;;;10.67;4.70;;;10.40;99.90;;;;;;4934857;29;20541;-75
2023/02/03 21:32:23;;;;;;;8.90;4.20;;;10.50;99.90;;;;;;4931810;29;20256;-75
2023/02/03 21:34:49;;;;;;;7.87;4.63;;;10.50;99.90;;;;;;4933396;29;20222;-75
2023/02/03 21:37:38;;;;;;;11.83;5.40;;;10.60;99.90;;;;;;4930027;29;20218;-75
2023/02/03 21:40:20;;;;;;;8.47;4.77;;;10.60;99.90;;;;;;4933531;29;20740;-75
2023/02/03 21:42:47;;;;;;;8.43;5.00;;;10.50;99.90;;;;;;4933823;29;20232;-75
2023/02/03 21:45:35;;;;;;;11.37;5.37;;;10.50;99.90;;;;;;4933849;29;20660;-75
2023/02/03 21:48:23;;;;;;;7.77;4.30;;;10.50;99.90;;;;;;4933598;29;21483;-74
2023/02/03 21:50:51;;;;;;;11.90;5.40;;;10.60;99.90;;;;;;4924832;29;20209;-74
2023/02/03 21:53:25;;;;;;;9.93;4.70;;;10.60;99.90;;;;;;4936383;29;20683;-75
2023/02/03 21:55:52;;;;;;;10.70;5.27;;;10.60;99.90;;;;;;4922928;29;20205;-75
2023/02/03 21:58:23;;;;;;;9.77;5.00;;;10.60;99.90;;;;;;4935514;29;20220;-75
2023/02/03 22:00:52;;;;;;;12.37;5.33;;;10.60;99.90;;;;;;4933208;29;20276;-74
2023/02/03 22:03:25;;;;;;;12.47;4.90;;;10.70;99.90;;;;;;4934225;29;20258;-74
2023/02/03 22:05:55;;;;;;;10.57;4.80;;;10.70;99.90;;;;;;4931503;29;20307;-74
2023/02/03 22:08:23;;;;;;;16.97;5.50;;;10.80;99.90;;;;;;4933400;29;20568;-75
2023/02/03 22:10:50;;;;;;;9.30;4.90;;;10.70;99.90;;;;;;4922488;29;20695;-75
2023/02/03 22:13:18;;;;;;;10.27;4.63;;;10.80;99.90;;;;;;4931515;29;20220;-75
2023/02/03 22:15:47;;;;;;;10.07;4.13;;;10.80;99.90;;;;;;4927955;29;20262;-74
2023/02/03 22:18:15;;;;;;;7.87;4.50;;;10.90;99.90;;;;;;4929448;29;20216;-75
